Aérodrome :
LOGIN :

S'inscrire | Disclaimer

   EN    FR    IT 

 










Légende :    VFR   VFR Marginal   IFR   IFR Intensif   IFR Très Intensif
Visi : 
Plafond : 
>= 8 km
>= 3000ft
5 à 8 km
1000 à 3000 ft
1500m à 5 km
500 à 1000 ft
800 à 1500m
200 à 500 ft
< 800m
< 200 ft
Symboles :   Orages  Brouillard  Fortes neiges  Fortes précipitations  Vent > 20 kt
SIGMETs :   Divers  Orages  Givrage  Turbulence  Onde Orograph.  Cendres Volcan.







- Altitude de l'aérodrome : 580 ft
- Voir les cartes d'approche


LFOA - Avord

DERNIER METAR :
  • 190230Z AUTO 21003KT CAVOK 06/03 Q1020

METARs EXPIRÉS :
  • 190200Z AUTO 27003KT CAVOK 06/03 Q1020
  • 190130Z AUTO 21005KT CAVOK 07/04 Q1020
  • 190100Z AUTO 22006KT CAVOK 06/03 Q1020
  • 190030Z AUTO 23006KT CAVOK 06/02 Q1020
  • 190000Z AUTO 22005KT CAVOK 06/02 Q1020

TAF TAF LFOA
Valide du 18 à 15h jusqu'au 19 à 15h UTC


181400Z 1815/1915 18005KT CAVOK
BECMG 1903/1905 BKN014
PROB40
TEMPO 1907/1911 4000 -RA BKN007
BECMG 1911/1913 BKN030
Pas de NOTAMs connus pour ce terrain.



MET'MAP, la Météo Aéronautique d'un coup d'oeil ! - Copyright ORBIFLY Décembre 2007 - Disclaimer

ORBIFLY MET'MAP TEAM :

Programmation & Développement : Alexandra Zaïnal
Conception & Développement : Baudouin d'Aumeries
Co-Programmation & Développement : Marc-Olivier Méhu
Soutien technique & logistique : Manuel Goepfert

Contact : metmap@orbifly.com




SOURCES & CREDITS :

   NOAA